sensor_id;sensor_type;location;lat;lon;timestamp;pressure;altitude;pressure_sealevel;temperature;humidity
163;BME280;3946;48.958;8.284;2023-05-03T00:02:37;101376.97;;;8.91;90.86
163;BME280;3946;48.958;8.284;2023-05-03T00:05:22;101367.34;;;9.15;90.08
163;BME280;3946;48.958;8.284;2023-05-03T00:08:08;101371.44;;;9.21;89.40
163;BME280;3946;48.958;8.284;2023-05-03T00:10:58;101375.44;;;9.07;89.25
163;BME280;3946;48.958;8.284;2023-05-03T00:13:44;101371.38;;;9.22;88.99
163;BME280;3946;48.958;8.284;2023-05-03T00:16:29;101374.31;;;9.13;89.65
163;BME280;3946;48.958;8.284;2023-05-03T00:19:14;101376.41;;;9.25;89.32
163;BME280;3946;48.958;8.284;2023-05-03T00:21:59;101376.84;;;9.15;89.64
163;BME280;3946;48.958;8.284;2023-05-03T00:24:44;101370.88;;;9.12;89.61
163;BME280;3946;48.958;8.284;2023-05-03T00:27:29;101356.88;;;9.18;89.75
163;BME280;3946;48.958;8.284;2023-05-03T00:30:16;101372.41;;;9.18;90.25
163;BME280;3946;48.958;8.284;2023-05-03T00:33:01;101371.66;;;9.15;90.40
163;BME280;3946;48.958;8.284;2023-05-03T00:35:46;101373.69;;;9.08;90.29
163;BME280;3946;48.958;8.284;2023-05-03T00:38:31;101374.66;;;9.05;91.18
163;BME280;3946;48.958;8.284;2023-05-03T00:41:16;101377.34;;;9.02;90.99
163;BME280;3946;48.958;8.284;2023-05-03T00:44:01;101378.09;;;8.84;91.82
163;BME280;3946;48.958;8.284;2023-05-03T00:46:47;101378.88;;;8.86;92.52
163;BME280;3946;48.958;8.284;2023-05-03T00:49:32;101371.06;;;8.88;92.50
163;BME280;3946;48.958;8.284;2023-05-03T00:52:17;101367.81;;;8.83;92.11
163;BME280;3946;48.958;8.284;2023-05-03T00:55:03;101363.72;;;8.77;92.44
163;BME280;3946;48.958;8.284;2023-05-03T00:57:48;101353.53;;;8.74;93.04
163;BME280;3946;48.958;8.284;2023-05-03T01:00:33;101372.47;;;8.74;93.51
163;BME280;3946;48.958;8.284;2023-05-03T01:03:19;101368.19;;;8.73;93.87
163;BME280;3946;48.958;8.284;2023-05-03T01:06:05;101359.00;;;8.66;93.94
163;BME280;3946;48.958;8.284;2023-05-03T01:08:53;101372.72;;;8.45;94.70
163;BME280;3946;48.958;8.284;2023-05-03T01:11:45;101363.81;;;8.54;95.13
163;BME280;3946;48.958;8.284;2023-05-03T01:14:34;101355.69;;;8.41;95.59
163;BME280;3946;48.958;8.284;2023-05-03T01:17:21;101359.53;;;8.29;96.90
163;BME280;3946;48.958;8.284;2023-05-03T01:20:10;101354.56;;;8.01;97.94
163;BME280;3946;48.958;8.284;2023-05-03T01:22:59;101355.19;;;8.08;98.96
163;BME280;3946;48.958;8.284;2023-05-03T01:25:46;101360.31;;;8.31;98.36
163;BME280;3946;48.958;8.284;2023-05-03T01:28:32;101356.88;;;8.32;98.46
163;BME280;3946;48.958;8.284;2023-05-03T01:31:18;101353.22;;;8.15;98.91
163;BME280;3946;48.958;8.284;2023-05-03T01:34:11;101351.41;;;8.17;99.45
163;BME280;3946;48.958;8.284;2023-05-03T01:36:58;101350.09;;;8.06;100.00
163;BME280;3946;48.958;8.284;2023-05-03T01:39:47;101356.31;;;8.01;100.00
163;BME280;3946;48.958;8.284;2023-05-03T01:42:35;101351.09;;;8.02;100.00
163;BME280;3946;48.958;8.284;2023-05-03T01:45:21;101351.59;;;8.12;100.00
163;BME280;3946;48.958;8.284;2023-05-03T01:48:09;101352.50;;;8.11;100.00
163;BME280;3946;48.958;8.284;2023-05-03T01:50:55;101354.41;;;8.06;100.00
163;BME280;3946;48.958;8.284;2023-05-03T01:53:41;101331.75;;;7.91;100.00
163;BME280;3946;48.958;8.284;2023-05-03T01:56:26;101341.19;;;7.92;100.00
163;BME280;3946;48.958;8.284;2023-05-03T01:59:12;101335.19;;;7.91;100.00
163;BME280;3946;48.958;8.284;2023-05-03T02:01:58;101342.63;;;7.99;100.00
163;BME280;3946;48.958;8.284;2023-05-03T02:04:42;101338.22;;;7.79;100.00
163;BME280;3946;48.958;8.284;2023-05-03T02:07:27;101344.19;;;7.80;100.00
163;BME280;3946;48.958;8.284;2023-05-03T02:10:13;101332.41;;;7.72;100.00
163;BME280;3946;48.958;8.284;2023-05-03T02:12:59;101329.69;;;7.77;100.00
163;BME280;3946;48.958;8.284;2023-05-03T02:15:45;101332.53;;;7.69;100.00
163;BME280;3946;48.958;8.284;2023-05-03T02:18:30;101336.28;;;7.61;100.00
163;BME280;3946;48.958;8.284;2023-05-03T02:21:16;101337.19;;;7.35;100.00
163;BME280;3946;48.958;8.284;2023-05-03T02:24:01;101339.75;;;7.35;100.00
163;BME280;3946;48.958;8.284;2023-05-03T02:26:46;101343.94;;;7.39;100.00
163;BME280;3946;48.958;8.284;2023-05-03T02:29:31;101345.72;;;7.37;100.00
163;BME280;3946;48.958;8.284;2023-05-03T02:32:20;101333.91;;;7.55;100.00
163;BME280;3946;48.958;8.284;2023-05-03T02:35:05;101340.84;;;7.29;100.00
163;BME280;3946;48.958;8.284;2023-05-03T02:37:50;101351.91;;;7.31;100.00
163;BME280;3946;48.958;8.284;2023-05-03T02:40:35;101349.50;;;7.27;100.00
163;BME280;3946;48.958;8.284;2023-05-03T02:43:21;101346.84;;;7.30;100.00
163;BME280;3946;48.958;8.284;2023-05-03T02:46:06;101352.00;;;7.30;100.00
163;BME280;3946;48.958;8.284;2023-05-03T02:48:52;101355.66;;;7.23;100.00
163;BME280;3946;48.958;8.284;2023-05-03T02:51:37;101358.47;;;7.15;100.00
163;BME280;3946;48.958;8.284;2023-05-03T02:54:22;101348.16;;;7.15;100.00
163;BME280;3946;48.958;8.284;2023-05-03T02:57:08;101351.09;;;7.05;100.00
163;BME280;3946;48.958;8.284;2023-05-03T02:59:54;101358.34;;;6.93;100.00
163;BME280;3946;48.958;8.284;2023-05-03T03:02:39;101355.28;;;7.09;100.00
163;BME280;3946;48.958;8.284;2023-05-03T03:05:26;101356.66;;;6.92;100.00
163;BME280;3946;48.958;8.284;2023-05-03T03:08:11;101361.03;;;6.90;100.00
163;BME280;3946;48.958;8.284;2023-05-03T03:10:56;101351.47;;;6.94;100.00
163;BME280;3946;48.958;8.284;2023-05-03T03:13:41;101356.75;;;6.89;100.00
163;BME280;3946;48.958;8.284;2023-05-03T03:16:27;101354.13;;;6.91;100.00
163;BME280;3946;48.958;8.284;2023-05-03T03:19:12;101351.91;;;6.80;100.00
163;BME280;3946;48.958;8.284;2023-05-03T03:21:59;101358.69;;;6.83;100.00
163;BME280;3946;48.958;8.284;2023-05-03T03:24:44;101356.84;;;6.60;100.00
163;BME280;3946;48.958;8.284;2023-05-03T03:27:30;101359.59;;;6.54;100.00
163;BME280;3946;48.958;8.284;2023-05-03T03:30:15;101359.78;;;6.76;100.00
163;BME280;3946;48.958;8.284;2023-05-03T03:33:12;101366.63;;;6.77;100.00
163;BME280;3946;48.958;8.284;2023-05-03T03:35:58;101361.09;;;6.61;100.00
163;BME280;3946;48.958;8.284;2023-05-03T03:38:50;101359.34;;;6.63;100.00
163;BME280;3946;48.958;8.284;2023-05-03T03:41:35;101362.75;;;6.63;100.00
163;BME280;3946;48.958;8.284;2023-05-03T03:44:21;101356.94;;;6.57;100.00
163;BME280;3946;48.958;8.284;2023-05-03T03:47:06;101353.78;;;6.49;100.00
163;BME280;3946;48.958;8.284;2023-05-03T03:49:52;101365.53;;;6.56;100.00
163;BME280;3946;48.958;8.284;2023-05-03T03:52:37;101362.53;;;6.70;100.00
163;BME280;3946;48.958;8.284;2023-05-03T03:55:24;101357.31;;;6.73;100.00
163;BME280;3946;48.958;8.284;2023-05-03T03:58:11;101373.19;;;6.59;100.00
163;BME280;3946;48.958;8.284;2023-05-03T04:00:56;101369.22;;;6.49;100.00
163;BME280;3946;48.958;8.284;2023-05-03T04:03:44;101372.72;;;6.46;100.00
163;BME280;3946;48.958;8.284;2023-05-03T04:06:31;101361.94;;;6.61;100.00
163;BME280;3946;48.958;8.284;2023-05-03T04:09:17;101361.34;;;6.53;100.00
163;BME280;3946;48.958;8.284;2023-05-03T04:12:04;101368.69;;;6.65;100.00
163;BME280;3946;48.958;8.284;2023-05-03T04:14:51;101366.00;;;6.68;100.00
163;BME280;3946;48.958;8.284;2023-05-03T04:17:36;101366.34;;;6.58;100.00
163;BME280;3946;48.958;8.284;2023-05-03T04:20:24;101370.31;;;6.68;100.00
163;BME280;3946;48.958;8.284;2023-05-03T04:23:11;101370.88;;;6.78;100.00
163;BME280;3946;48.958;8.284;2023-05-03T04:25:56;101369.25;;;6.75;100.00
163;BME280;3946;48.958;8.284;2023-05-03T04:28:44;101366.38;;;6.84;100.00
163;BME280;3946;48.958;8.284;2023-05-03T04:31:30;101368.97;;;6.83;100.00
163;BME280;3946;48.958;8.284;2023-05-03T04:34:15;101374.66;;;6.94;100.00
163;BME280;3946;48.958;8.284;2023-05-03T04:37:04;101361.28;;;7.09;100.00
163;BME280;3946;48.958;8.284;2023-05-03T04:39:51;101363.25;;;7.27;100.00
163;BME280;3946;48.958;8.284;2023-05-03T04:42:37;101367.78;;;7.46;100.00
163;BME280;3946;48.958;8.284;2023-05-03T04:45:25;101369.31;;;7.75;100.00
163;BME280;3946;48.958;8.284;2023-05-03T04:48:11;101370.91;;;8.02;100.00
163;BME280;3946;48.958;8.284;2023-05-03T04:50:58;101370.28;;;8.19;99.60
163;BME280;3946;48.958;8.284;2023-05-03T04:53:44;101371.72;;;8.49;96.86
163;BME280;3946;48.958;8.284;2023-05-03T04:56:33;101371.72;;;8.71;94.83
163;BME280;3946;48.958;8.284;2023-05-03T04:59:27;101372.63;;;8.92;92.64
163;BME280;3946;48.958;8.284;2023-05-03T05:02:14;101366.91;;;9.05;91.51
163;BME280;3946;48.958;8.284;2023-05-03T05:04:59;101357.72;;;9.39;89.31
163;BME280;3946;48.958;8.284;2023-05-03T05:07:45;101358.59;;;9.58;87.90
163;BME280;3946;48.958;8.284;2023-05-03T05:10:30;101352.94;;;9.89;85.86
163;BME280;3946;48.958;8.284;2023-05-03T05:13:16;101348.53;;;10.10;84.63
163;BME280;3946;48.958;8.284;2023-05-03T05:16:01;101355.50;;;10.08;84.18
163;BME280;3946;48.958;8.284;2023-05-03T05:18:48;101356.13;;;10.33;83.57
163;BME280;3946;48.958;8.284;2023-05-03T05:21:35;101336.31;;;10.68;81.58
163;BME280;3946;48.958;8.284;2023-05-03T05:24:20;101335.31;;;10.54;81.54
163;BME280;3946;48.958;8.284;2023-05-03T05:27:07;101324.34;;;10.83;80.19
163;BME280;3946;48.958;8.284;2023-05-03T05:29:53;101336.25;;;10.70;80.33
163;BME280;3946;48.958;8.284;2023-05-03T05:32:38;101322.59;;;11.01;78.64
163;BME280;3946;48.958;8.284;2023-05-03T05:35:27;101313.88;;;11.36;78.16
163;BME280;3946;48.958;8.284;2023-05-03T05:38:12;101317.50;;;10.99;77.89
163;BME280;3946;48.958;8.284;2023-05-03T05:40:58;101311.97;;;11.05;78.22
163;BME280;3946;48.958;8.284;2023-05-03T05:43:43;101336.47;;;10.82;79.37
163;BME280;3946;48.958;8.284;2023-05-03T05:46:29;101321.00;;;11.15;78.22
163;BME280;3946;48.958;8.284;2023-05-03T05:49:15;101321.97;;;11.30;77.35
163;BME280;3946;48.958;8.284;2023-05-03T05:52:02;101314.53;;;11.40;77.50
163;BME280;3946;48.958;8.284;2023-05-03T05:54:47;101319.38;;;11.63;77.30
163;BME280;3946;48.958;8.284;2023-05-03T05:57:32;101325.34;;;11.32;77.90
163;BME280;3946;48.958;8.284;2023-05-03T06:00:19;101339.28;;;11.30;79.62
163;BME280;3946;48.958;8.284;2023-05-03T06:03:04;101320.66;;;11.21;78.17
163;BME280;3946;48.958;8.284;2023-05-03T06:05:50;101315.47;;;11.72;77.50
163;BME280;3946;48.958;8.284;2023-05-03T06:08:36;101308.47;;;12.21;76.61
163;BME280;3946;48.958;8.284;2023-05-03T06:11:22;101327.84;;;11.67;78.18
163;BME280;3946;48.958;8.284;2023-05-03T06:14:08;101311.81;;;11.76;77.42
163;BME280;3946;48.958;8.284;2023-05-03T06:16:56;101332.19;;;11.50;78.56
163;BME280;3946;48.958;8.284;2023-05-03T06:19:43;101344.72;;;11.08;79.95
163;BME280;3946;48.958;8.284;2023-05-03T06:22:28;101345.53;;;10.91;81.41
163;BME280;3946;48.958;8.284;2023-05-03T06:25:15;101349.44;;;10.82;82.00
163;BME280;3946;48.958;8.284;2023-05-03T06:28:02;101356.63;;;10.59;82.82
163;BME280;3946;48.958;8.284;2023-05-03T06:30:50;101343.34;;;10.47;83.89
163;BME280;3946;48.958;8.284;2023-05-03T06:33:35;101349.19;;;10.34;83.77
163;BME280;3946;48.958;8.284;2023-05-03T06:36:21;101335.31;;;10.54;84.72
163;BME280;3946;48.958;8.284;2023-05-03T06:39:06;101348.03;;;10.75;84.88
163;BME280;3946;48.958;8.284;2023-05-03T06:41:54;101326.13;;;11.17;82.78
163;BME280;3946;48.958;8.284;2023-05-03T06:44:49;101322.81;;;11.13;81.96
163;BME280;3946;48.958;8.284;2023-05-03T06:47:34;101313.91;;;11.19;81.75
163;BME280;3946;48.958;8.284;2023-05-03T06:50:20;101311.03;;;11.41;81.55
163;BME280;3946;48.958;8.284;2023-05-03T06:53:07;101316.91;;;11.44;82.17
163;BME280;3946;48.958;8.284;2023-05-03T06:55:52;101301.69;;;11.54;80.54
163;BME280;3946;48.958;8.284;2023-05-03T06:58:40;101321.53;;;11.55;81.18
163;BME280;3946;48.958;8.284;2023-05-03T07:01:25;101318.78;;;11.58;81.00
163;BME280;3946;48.958;8.284;2023-05-03T07:04:10;101307.00;;;11.68;79.65
163;BME280;3946;48.958;8.284;2023-05-03T07:06:56;101311.25;;;12.02;79.74
163;BME280;3946;48.958;8.284;2023-05-03T07:09:41;101309.69;;;12.15;79.78
163;BME280;3946;48.958;8.284;2023-05-03T07:12:26;101312.69;;;12.23;79.04
163;BME280;3946;48.958;8.284;2023-05-03T07:15:13;101307.03;;;12.63;79.30
163;BME280;3946;48.958;8.284;2023-05-03T07:17:58;101290.53;;;12.48;77.65
163;BME280;3946;48.958;8.284;2023-05-03T07:20:44;101299.78;;;12.68;78.44
163;BME280;3946;48.958;8.284;2023-05-03T07:23:29;101286.88;;;12.96;76.78
163;BME280;3946;48.958;8.284;2023-05-03T07:26:14;101276.38;;;12.98;76.42
163;BME280;3946;48.958;8.284;2023-05-03T07:29:00;101287.56;;;12.84;76.65
163;BME280;3946;48.958;8.284;2023-05-03T07:31:47;101282.09;;;12.88;76.51
163;BME280;3946;48.958;8.284;2023-05-03T07:34:32;101274.00;;;12.79;76.28
163;BME280;3946;48.958;8.284;2023-05-03T07:37:17;101290.91;;;12.86;77.45
163;BME280;3946;48.958;8.284;2023-05-03T07:40:04;101265.78;;;13.01;76.96
163;BME280;3946;48.958;8.284;2023-05-03T07:42:50;101272.47;;;13.05;76.56
163;BME280;3946;48.958;8.284;2023-05-03T07:45:36;101263.56;;;13.09;75.76
163;BME280;3946;48.958;8.284;2023-05-03T07:48:22;101262.47;;;13.13;75.76
163;BME280;3946;48.958;8.284;2023-05-03T07:51:08;101276.88;;;13.18;77.52
163;BME280;3946;48.958;8.284;2023-05-03T07:53:53;101217.03;;;13.18;76.88
163;BME280;3946;48.958;8.284;2023-05-03T07:56:39;101242.03;;;13.49;75.32
163;BME280;3946;48.958;8.284;2023-05-03T07:59:23;101245.63;;;13.75;74.80
163;BME280;3946;48.958;8.284;2023-05-03T08:02:08;101257.91;;;13.73;75.59
163;BME280;3946;48.958;8.284;2023-05-03T08:04:55;101244.19;;;14.25;74.59
163;BME280;3946;48.958;8.284;2023-05-03T08:07:40;101240.00;;;14.22;73.56
163;BME280;3946;48.958;8.284;2023-05-03T08:10:25;101246.16;;;14.21;74.09
163;BME280;3946;48.958;8.284;2023-05-03T08:13:10;101258.22;;;14.10;74.00
163;BME280;3946;48.958;8.284;2023-05-03T08:15:55;101278.28;;;14.22;74.56
163;BME280;3946;48.958;8.284;2023-05-03T08:18:40;101273.16;;;13.93;75.08
163;BME280;3946;48.958;8.284;2023-05-03T08:21:26;101265.28;;;14.08;74.30
163;BME280;3946;48.958;8.284;2023-05-03T08:24:11;101282.78;;;14.06;75.21
163;BME280;3946;48.958;8.284;2023-05-03T08:26:56;101262.38;;;14.39;74.13
163;BME280;3946;48.958;8.284;2023-05-03T08:29:41;101256.00;;;14.57;73.40
163;BME280;3946;48.958;8.284;2023-05-03T08:32:26;101245.13;;;14.63;72.48
163;BME280;3946;48.958;8.284;2023-05-03T08:35:12;101234.63;;;14.78;72.14
163;BME280;3946;48.958;8.284;2023-05-03T08:37:59;101263.84;;;14.70;72.93
163;BME280;3946;48.958;8.284;2023-05-03T08:40:44;101249.88;;;14.84;72.32
163;BME280;3946;48.958;8.284;2023-05-03T08:43:31;101246.22;;;14.74;71.64
163;BME280;3946;48.958;8.284;2023-05-03T08:46:18;101233.72;;;14.91;71.88
163;BME280;3946;48.958;8.284;2023-05-03T08:49:03;101236.41;;;15.02;71.54
163;BME280;3946;48.958;8.284;2023-05-03T08:51:49;101232.13;;;15.14;71.13
163;BME280;3946;48.958;8.284;2023-05-03T08:54:37;101249.13;;;15.45;71.79
163;BME280;3946;48.958;8.284;2023-05-03T08:57:22;101222.78;;;15.48;70.42
163;BME280;3946;48.958;8.284;2023-05-03T09:00:08;101230.31;;;15.65;70.69
163;BME280;3946;48.958;8.284;2023-05-03T09:02:55;101221.56;;;15.28;70.78
163;BME280;3946;48.958;8.284;2023-05-03T09:05:40;101216.25;;;15.55;70.39
163;BME280;3946;48.958;8.284;2023-05-03T09:08:26;101213.31;;;15.84;69.77
163;BME280;3946;48.958;8.284;2023-05-03T09:11:20;101196.88;;;15.70;69.29
163;BME280;3946;48.958;8.284;2023-05-03T09:14:09;101221.94;;;15.73;70.41
163;BME280;3946;48.958;8.284;2023-05-03T09:16:54;101201.88;;;15.61;69.46
163;BME280;3946;48.958;8.284;2023-05-03T09:19:48;101213.28;;;15.60;69.64
163;BME280;3946;48.958;8.284;2023-05-03T09:22:33;101192.19;;;16.10;68.28
163;BME280;3946;48.958;8.284;2023-05-03T09:25:20;101197.94;;;16.27;68.60
163;BME280;3946;48.958;8.284;2023-05-03T09:28:06;101207.00;;;16.23;68.72
163;BME280;3946;48.958;8.284;2023-05-03T09:31:02;101186.41;;;16.18;67.83
163;BME280;3946;48.958;8.284;2023-05-03T09:33:47;101189.22;;;16.39;68.04
163;BME280;3946;48.958;8.284;2023-05-03T09:36:43;101191.19;;;16.00;67.90
163;BME280;3946;48.958;8.284;2023-05-03T09:39:30;101193.38;;;16.41;67.97
163;BME280;3946;48.958;8.284;2023-05-03T09:42:15;101186.84;;;16.82;67.47
163;BME280;3946;48.958;8.284;2023-05-03T09:45:02;101179.09;;;16.10;67.17
163;BME280;3946;48.958;8.284;2023-05-03T09:47:48;101199.09;;;16.12;67.82
163;BME280;3946;48.958;8.284;2023-05-03T09:50:35;101203.53;;;16.22;67.96
163;BME280;3946;48.958;8.284;2023-05-03T09:53:20;101205.84;;;16.38;68.49
163;BME280;3946;48.958;8.284;2023-05-03T09:56:05;101164.22;;;16.81;66.59
163;BME280;3946;48.958;8.284;2023-05-03T09:58:52;101149.69;;;16.66;65.93
163;BME280;3946;48.958;8.284;2023-05-03T10:01:38;101150.56;;;17.00;65.78
163;BME280;3946;48.958;8.284;2023-05-03T10:04:24;101150.41;;;17.12;65.94
163;BME280;3946;48.958;8.284;2023-05-03T10:07:11;101149.34;;;17.26;65.78
163;BME280;3946;48.958;8.284;2023-05-03T10:09:57;101133.25;;;17.31;64.98
163;BME280;3946;48.958;8.284;2023-05-03T10:12:43;101138.75;;;16.83;65.18
163;BME280;3946;48.958;8.284;2023-05-03T10:15:29;101139.13;;;17.01;65.50
163;BME280;3946;48.958;8.284;2023-05-03T10:18:16;101167.44;;;17.07;66.20
163;BME280;3946;48.958;8.284;2023-05-03T10:21:03;101117.97;;;17.47;64.74
163;BME280;3946;48.958;8.284;2023-05-03T10:24:07;101125.78;;;17.80;65.03
163;BME280;3946;48.958;8.284;2023-05-03T10:26:54;101087.72;;;17.86;63.31
163;BME280;3946;48.958;8.284;2023-05-03T10:29:43;101081.25;;;17.90;63.04
163;BME280;3946;48.958;8.284;2023-05-03T10:32:33;101102.34;;;17.68;64.32
163;BME280;3946;48.958;8.284;2023-05-03T10:35:20;101085.56;;;17.91;63.35
163;BME280;3946;48.958;8.284;2023-05-03T10:38:12;101102.81;;;17.19;64.28
163;BME280;3946;48.958;8.284;2023-05-03T10:40:58;101107.31;;;17.28;64.50
163;BME280;3946;48.958;8.284;2023-05-03T10:43:46;101067.06;;;17.61;63.23
163;BME280;3946;48.958;8.284;2023-05-03T10:46:34;101086.50;;;17.58;63.91
163;BME280;3946;48.958;8.284;2023-05-03T10:49:20;101073.53;;;17.68;63.24
163;BME280;3946;48.958;8.284;2023-05-03T10:55:08;101075.06;;;18.33;63.13
163;BME280;3946;48.958;8.284;2023-05-03T10:57:55;101019.16;;;18.42;60.70
163;BME280;3946;48.958;8.284;2023-05-03T11:00:41;101049.97;;;18.70;61.70
163;BME280;3946;48.958;8.284;2023-05-03T11:03:30;101027.63;;;18.45;60.89
163;BME280;3946;48.958;8.284;2023-05-03T11:06:31;101045.09;;;18.35;61.60
163;BME280;3946;48.958;8.284;2023-05-03T11:09:17;101013.91;;;18.63;60.53
163;BME280;3946;48.958;8.284;2023-05-03T11:12:04;101029.91;;;18.60;60.82
163;BME280;3946;48.958;8.284;2023-05-03T11:14:49;101028.84;;;18.72;60.58
163;BME280;3946;48.958;8.284;2023-05-03T11:17:34;101020.41;;;18.68;60.42
163;BME280;3946;48.958;8.284;2023-05-03T11:20:20;101046.16;;;18.84;61.48
163;BME280;3946;48.958;8.284;2023-05-03T11:23:05;100976.06;;;18.65;58.47
163;BME280;3946;48.958;8.284;2023-05-03T11:25:50;100992.94;;;18.51;59.61
163;BME280;3946;48.958;8.284;2023-05-03T11:28:37;101061.91;;;18.84;61.93
163;BME280;3946;48.958;8.284;2023-05-03T11:31:22;100965.88;;;18.81;58.15
163;BME280;3946;48.958;8.284;2023-05-03T11:34:09;100967.41;;;18.94;58.42
163;BME280;3946;48.958;8.284;2023-05-03T11:36:56;100963.53;;;18.98;58.06
163;BME280;3946;48.958;8.284;2023-05-03T11:39:42;100989.63;;;18.90;59.18
163;BME280;3946;48.958;8.284;2023-05-03T11:42:27;100942.78;;;18.75;57.60
163;BME280;3946;48.958;8.284;2023-05-03T11:45:14;100974.16;;;18.77;58.63
163;BME280;3946;48.958;8.284;2023-05-03T11:47:59;100919.56;;;18.90;56.67
163;BME280;3946;48.958;8.284;2023-05-03T11:50:44;100962.97;;;19.33;58.39
163;BME280;3946;48.958;8.284;2023-05-03T11:53:30;100952.91;;;19.47;58.20
163;BME280;3946;48.958;8.284;2023-05-03T11:56:16;100946.13;;;19.64;58.08
163;BME280;3946;48.958;8.284;2023-05-03T11:59:02;100915.41;;;19.16;56.80
163;BME280;3946;48.958;8.284;2023-05-03T12:01:52;100945.28;;;19.44;58.33
163;BME280;3946;48.958;8.284;2023-05-03T12:04:39;100910.44;;;19.23;57.17
163;BME280;3946;48.958;8.284;2023-05-03T12:07:27;100894.25;;;19.18;56.15
163;BME280;3946;48.958;8.284;2023-05-03T12:10:13;100884.53;;;19.57;55.39
163;BME280;3946;48.958;8.284;2023-05-03T12:12:58;100908.31;;;19.65;56.42
163;BME280;3946;48.958;8.284;2023-05-03T12:15:44;100904.09;;;19.91;56.33
163;BME280;3946;48.958;8.284;2023-05-03T12:21:43;100898.84;;;19.91;56.14
163;BME280;3946;48.958;8.284;2023-05-03T12:24:28;100888.72;;;19.97;55.47
163;BME280;3946;48.958;8.284;2023-05-03T12:27:16;100890.69;;;19.85;55.92
163;BME280;3946;48.958;8.284;2023-05-03T12:30:01;100878.63;;;20.19;55.57
163;BME280;3946;48.958;8.284;2023-05-03T12:32:46;100862.09;;;20.27;54.89
163;BME280;3946;48.958;8.284;2023-05-03T12:35:33;100848.97;;;20.17;54.73
163;BME280;3946;48.958;8.284;2023-05-03T12:38:20;100839.69;;;19.96;54.03
163;BME280;3946;48.958;8.284;2023-05-03T12:41:05;100822.97;;;20.14;53.44
163;BME280;3946;48.958;8.284;2023-05-03T12:43:50;100852.09;;;20.31;54.65
163;BME280;3946;48.958;8.284;2023-05-03T12:46:35;100835.44;;;20.40;54.47
163;BME280;3946;48.958;8.284;2023-05-03T12:49:20;100820.13;;;20.25;53.87
163;BME280;3946;48.958;8.284;2023-05-03T12:52:05;100823.59;;;20.26;53.75
163;BME280;3946;48.958;8.284;2023-05-03T12:54:52;100856.63;;;19.83;55.04
163;BME280;3946;48.958;8.284;2023-05-03T12:57:37;100807.16;;;19.97;53.95
163;BME280;3946;48.958;8.284;2023-05-03T13:00:22;100834.78;;;20.10;54.58
163;BME280;3946;48.958;8.284;2023-05-03T13:03:07;100780.03;;;20.32;52.73
163;BME280;3946;48.958;8.284;2023-05-03T13:05:52;100800.09;;;20.15;53.03
163;BME280;3946;48.958;8.284;2023-05-03T13:08:37;100747.47;;;20.42;51.35
163;BME280;3946;48.958;8.284;2023-05-03T13:11:23;100717.28;;;20.37;50.54
163;BME280;3946;48.958;8.284;2023-05-03T13:14:09;100770.81;;;20.63;52.33
163;BME280;3946;48.958;8.284;2023-05-03T13:16:56;100776.97;;;20.89;52.62
163;BME280;3946;48.958;8.284;2023-05-03T13:19:43;100771.88;;;20.70;51.97
163;BME280;3946;48.958;8.284;2023-05-03T13:22:30;100767.41;;;20.88;51.91
163;BME280;3946;48.958;8.284;2023-05-03T13:25:14;100727.22;;;20.86;50.22
163;BME280;3946;48.958;8.284;2023-05-03T13:28:01;100724.59;;;20.94;50.74
163;BME280;3946;48.958;8.284;2023-05-03T13:30:46;100764.19;;;21.20;51.66
163;BME280;3946;48.958;8.284;2023-05-03T13:33:31;100737.56;;;20.62;51.31
163;BME280;3946;48.958;8.284;2023-05-03T13:36:21;100730.97;;;20.58;51.31
163;BME280;3946;48.958;8.284;2023-05-03T13:39:06;100732.16;;;20.46;51.29
163;BME280;3946;48.958;8.284;2023-05-03T13:41:52;100753.06;;;20.47;52.09
163;BME280;3946;48.958;8.284;2023-05-03T13:44:39;100766.00;;;20.76;52.62
163;BME280;3946;48.958;8.284;2023-05-03T13:47:25;100711.13;;;20.98;50.52
163;BME280;3946;48.958;8.284;2023-05-03T13:50:10;100693.09;;;20.77;49.62
163;BME280;3946;48.958;8.284;2023-05-03T13:52:55;100668.94;;;20.64;49.27
163;BME280;3946;48.958;8.284;2023-05-03T13:55:40;100732.50;;;20.69;51.33
163;BME280;3946;48.958;8.284;2023-05-03T13:58:25;100691.81;;;20.89;50.13
163;BME280;3946;48.958;8.284;2023-05-03T14:01:11;100686.09;;;20.93;49.70
163;BME280;3946;48.958;8.284;2023-05-03T14:03:56;100667.63;;;21.19;49.44
163;BME280;3946;48.958;8.284;2023-05-03T14:06:41;100676.22;;;21.29;49.62
163;BME280;3946;48.958;8.284;2023-05-03T14:09:26;100677.84;;;20.96;49.99
163;BME280;3946;48.958;8.284;2023-05-03T14:12:12;100663.09;;;21.04;49.68
163;BME280;3946;48.958;8.284;2023-05-03T14:14:56;100651.34;;;21.24;49.27
163;BME280;3946;48.958;8.284;2023-05-03T14:17:43;100637.72;;;21.03;49.07
163;BME280;3946;48.958;8.284;2023-05-03T14:20:31;100650.84;;;21.20;49.33
163;BME280;3946;48.958;8.284;2023-05-03T14:23:16;100595.94;;;21.16;47.49
163;BME280;3946;48.958;8.284;2023-05-03T14:26:01;100600.16;;;20.92;47.99
163;BME280;3946;48.958;8.284;2023-05-03T14:28:47;100605.44;;;21.01;48.14
163;BME280;3946;48.958;8.284;2023-05-03T14:31:32;100619.34;;;21.19;48.34
163;BME280;3946;48.958;8.284;2023-05-03T14:34:19;100637.56;;;20.70;49.00
163;BME280;3946;48.958;8.284;2023-05-03T14:37:04;100635.84;;;20.87;48.83
163;BME280;3946;48.958;8.284;2023-05-03T14:39:49;100667.19;;;20.72;49.83
163;BME280;3946;48.958;8.284;2023-05-03T14:42:34;100657.66;;;21.05;49.54
163;BME280;3946;48.958;8.284;2023-05-03T14:45:19;100641.19;;;21.03;49.40
163;BME280;3946;48.958;8.284;2023-05-03T14:48:04;100670.31;;;21.02;49.72
163;BME280;3946;48.958;8.284;2023-05-03T14:50:51;100642.78;;;21.22;48.81
163;BME280;3946;48.958;8.284;2023-05-03T14:53:37;100629.69;;;21.12;48.16
163;BME280;3946;48.958;8.284;2023-05-03T14:56:22;100661.91;;;21.32;49.24
163;BME280;3946;48.958;8.284;2023-05-03T14:59:07;100637.56;;;21.04;48.39
163;BME280;3946;48.958;8.284;2023-05-03T15:01:52;100664.59;;;21.14;49.11
163;BME280;3946;48.958;8.284;2023-05-03T15:04:37;100683.78;;;21.58;49.47
163;BME280;3946;48.958;8.284;2023-05-03T15:07:24;100632.28;;;21.46;48.25
163;BME280;3946;48.958;8.284;2023-05-03T15:10:09;100639.53;;;21.36;48.79
163;BME280;3946;48.958;8.284;2023-05-03T15:12:54;100635.72;;;21.30;48.05